sensor_id;sensor_type;location;lat;lon;timestamp;P1;P4;P2;P0;N10;N4;N25;N1;N05;TS
72225;SPS30;60130;52.250;5.048;2023-04-01T00:00:00;13.42;;11.82;;;;;;;
72225;SPS30;60130;52.250;5.048;2023-04-01T00:05:00;13.29;;12.03;;;;;;;
72225;SPS30;60130;52.250;5.048;2023-04-01T00:10:00;15.21;;13.41;;;;;;;
72225;SPS30;60130;52.250;5.048;2023-04-01T00:15:00;16.48;;14.17;;;;;;;
72225;SPS30;60130;52.250;5.048;2023-04-01T00:20:00;14.29;;12.23;;;;;;;
72225;SPS30;60130;52.250;5.048;2023-04-01T00:25:00;16.13;;13.84;;;;;;;
72225;SPS30;60130;52.250;5.048;2023-04-01T00:30:00;16.77;;13.84;;;;;;;
72225;SPS30;60130;52.250;5.048;2023-04-01T00:35:00;13.26;;11.26;;;;;;;
72225;SPS30;60130;52.250;5.048;2023-04-01T00:40:00;14.35;;12.08;;;;;;;
72225;SPS30;60130;52.250;5.048;2023-04-01T00:50:00;9.07;;7.93;;;;;;;
72225;SPS30;60130;52.250;5.048;2023-04-01T00:55:00;8.71;;7.59;;;;;;;
72225;SPS30;60130;52.250;5.048;2023-04-01T01:00:00;8.86;;7.69;;;;;;;
72225;SPS30;60130;52.250;5.048;2023-04-01T01:05:00;8.00;;7.07;;;;;;;
72225;SPS30;60130;52.250;5.048;2023-04-01T01:10:01;7.18;;6.45;;;;;;;
72225;SPS30;60130;52.250;5.048;2023-04-01T01:15:02;7.31;;6.66;;;;;;;
72225;SPS30;60130;52.250;5.048;2023-04-01T01:20:05;6.23;;5.75;;;;;;;
72225;SPS30;60130;52.250;5.048;2023-04-01T01:25:04;6.89;;6.28;;;;;;;
72225;SPS30;60130;52.250;5.048;2023-04-01T01:30:06;5.04;;4.69;;;;;;;
72225;SPS30;60130;52.250;5.048;2023-04-01T01:40:01;4.34;;3.94;;;;;;;
72225;SPS30;60130;52.250;5.048;2023-04-01T01:45:00;4.90;;4.44;;;;;;;
72225;SPS30;60130;52.250;5.048;2023-04-01T01:50:00;4.58;;4.26;;;;;;;
72225;SPS30;60130;52.250;5.048;2023-04-01T01:55:00;5.62;;5.33;;;;;;;
72225;SPS30;60130;52.250;5.048;2023-04-01T02:00:02;6.91;;6.43;;;;;;;
72225;SPS30;60130;52.250;5.048;2023-04-01T02:05:00;5.72;;5.28;;;;;;;
72225;SPS30;60130;52.250;5.048;2023-04-01T02:10:00;6.29;;5.85;;;;;;;
72225;SPS30;60130;52.250;5.048;2023-04-01T02:15:01;6.16;;5.89;;;;;;;
72225;SPS30;60130;52.250;5.048;2023-04-01T02:20:01;7.72;;7.31;;;;;;;
72225;SPS30;60130;52.250;5.048;2023-04-01T02:25:01;8.00;;7.73;;;;;;;
72225;SPS30;60130;52.250;5.048;2023-04-01T02:30:00;8.03;;7.75;;;;;;;
72225;SPS30;60130;52.250;5.048;2023-04-01T02:35:00;9.53;;8.92;;;;;;;
72225;SPS30;60130;52.250;5.048;2023-04-01T02:40:00;8.69;;8.28;;;;;;;
72225;SPS30;60130;52.250;5.048;2023-04-01T02:45:00;10.61;;9.64;;;;;;;
72225;SPS30;60130;52.250;5.048;2023-04-01T02:50:00;11.28;;10.12;;;;;;;
72225;SPS30;60130;52.250;5.048;2023-04-01T02:55:00;11.53;;10.39;;;;;;;
72225;SPS30;60130;52.250;5.048;2023-04-01T03:00:00;10.15;;9.49;;;;;;;
72225;SPS30;60130;52.250;5.048;2023-04-01T03:05:00;13.26;;11.79;;;;;;;
72225;SPS30;60130;52.250;5.048;2023-04-01T03:10:00;12.56;;11.16;;;;;;;
72225;SPS30;60130;52.250;5.048;2023-04-01T03:15:00;10.08;;9.28;;;;;;;
72225;SPS30;60130;52.250;5.048;2023-04-01T03:20:00;10.75;;9.64;;;;;;;
72225;SPS30;60130;52.250;5.048;2023-04-01T03:25:00;10.92;;9.62;;;;;;;
72225;SPS30;60130;52.250;5.048;2023-04-01T03:30:00;8.25;;7.53;;;;;;;
72225;SPS30;60130;52.250;5.048;2023-04-01T03:35:00;7.91;;7.16;;;;;;;
72225;SPS30;60130;52.250;5.048;2023-04-01T03:40:00;6.95;;6.22;;;;;;;
72225;SPS30;60130;52.250;5.048;2023-04-01T03:45:00;7.00;;5.98;;;;;;;
72225;SPS30;60130;52.250;5.048;2023-04-01T03:50:00;6.40;;5.30;;;;;;;
72225;SPS30;60130;52.250;5.048;2023-04-01T03:55:00;5.00;;4.31;;;;;;;
72225;SPS30;60130;52.250;5.048;2023-04-01T04:00:00;5.82;;4.87;;;;;;;
72225;SPS30;60130;52.250;5.048;2023-04-01T04:05:00;5.18;;4.32;;;;;;;
72225;SPS30;60130;52.250;5.048;2023-04-01T04:10:00;4.05;;3.47;;;;;;;
72225;SPS30;60130;52.250;5.048;2023-04-01T04:15:00;4.85;;4.08;;;;;;;
72225;SPS30;60130;52.250;5.048;2023-04-01T04:20:00;4.09;;3.50;;;;;;;
72225;SPS30;60130;52.250;5.048;2023-04-01T04:25:00;5.42;;4.71;;;;;;;
72225;SPS30;60130;52.250;5.048;2023-04-01T04:30:00;5.78;;4.92;;;;;;;
72225;SPS30;60130;52.250;5.048;2023-04-01T04:35:00;5.56;;4.88;;;;;;;
72225;SPS30;60130;52.250;5.048;2023-04-01T04:40:00;5.97;;5.19;;;;;;;
72225;SPS30;60130;52.250;5.048;2023-04-01T04:45:00;5.50;;4.81;;;;;;;
72225;SPS30;60130;52.250;5.048;2023-04-01T04:50:00;5.49;;4.86;;;;;;;
72225;SPS30;60130;52.250;5.048;2023-04-01T04:55:00;5.98;;5.30;;;;;;;
72225;SPS30;60130;52.250;5.048;2023-04-01T05:00:00;6.69;;5.78;;;;;;;
72225;SPS30;60130;52.250;5.048;2023-04-01T05:05:00;5.33;;4.70;;;;;;;
72225;SPS30;60130;52.250;5.048;2023-04-01T05:10:00;5.56;;4.93;;;;;;;
72225;SPS30;60130;52.250;5.048;2023-04-01T05:15:00;4.84;;4.34;;;;;;;
72225;SPS30;60130;52.250;5.048;2023-04-01T05:20:00;7.24;;6.23;;;;;;;
72225;SPS30;60130;52.250;5.048;2023-04-01T05:25:00;5.89;;5.05;;;;;;;
72225;SPS30;60130;52.250;5.048;2023-04-01T05:30:00;5.93;;5.10;;;;;;;
72225;SPS30;60130;52.250;5.048;2023-04-01T05:35:00;6.42;;5.59;;;;;;;
72225;SPS30;60130;52.250;5.048;2023-04-01T05:40:00;6.69;;5.69;;;;;;;
72225;SPS30;60130;52.250;5.048;2023-04-01T05:45:00;6.98;;6.10;;;;;;;
72225;SPS30;60130;52.250;5.048;2023-04-01T05:50:00;6.79;;5.98;;;;;;;
72225;SPS30;60130;52.250;5.048;2023-04-01T05:55:00;6.83;;6.11;;;;;;;
72225;SPS30;60130;52.250;5.048;2023-04-01T06:00:00;7.36;;6.53;;;;;;;
72225;SPS30;60130;52.250;5.048;2023-04-01T06:05:02;7.18;;6.61;;;;;;;
72225;SPS30;60130;52.250;5.048;2023-04-01T06:10:00;7.04;;6.27;;;;;;;
72225;SPS30;60130;52.250;5.048;2023-04-01T06:15:03;6.57;;5.78;;;;;;;
72225;SPS30;60130;52.250;5.048;2023-04-01T06:20:02;7.20;;6.37;;;;;;;
72225;SPS30;60130;52.250;5.048;2023-04-01T06:25:04;5.15;;4.66;;;;;;;
72225;SPS30;60130;52.250;5.048;2023-04-01T06:30:06;6.07;;5.34;;;;;;;
72225;SPS30;60130;52.250;5.048;2023-04-01T06:35:03;6.53;;5.91;;;;;;;
72225;SPS30;60130;52.250;5.048;2023-04-01T06:40:03;6.79;;6.21;;;;;;;
72225;SPS30;60130;52.250;5.048;2023-04-01T06:45:03;6.46;;5.77;;;;;;;
72225;SPS30;60130;52.250;5.048;2023-04-01T06:50:01;7.07;;6.20;;;;;;;
72225;SPS30;60130;52.250;5.048;2023-04-01T06:55:00;6.66;;5.90;;;;;;;
72225;SPS30;60130;52.250;5.048;2023-04-01T07:00:00;7.41;;6.41;;;;;;;
72225;SPS30;60130;52.250;5.048;2023-04-01T07:05:00;6.80;;5.87;;;;;;;
72225;SPS30;60130;52.250;5.048;2023-04-01T07:10:02;5.61;;4.90;;;;;;;
72225;SPS30;60130;52.250;5.048;2023-04-01T07:15:01;5.24;;4.51;;;;;;;
72225;SPS30;60130;52.250;5.048;2023-04-01T07:20:02;6.38;;5.45;;;;;;;
72225;SPS30;60130;52.250;5.048;2023-04-01T07:25:01;6.79;;5.83;;;;;;;
72225;SPS30;60130;52.250;5.048;2023-04-01T07:30:00;7.82;;6.61;;;;;;;
72225;SPS30;60130;52.250;5.048;2023-04-01T07:35:07;7.98;;6.89;;;;;;;
72225;SPS30;60130;52.250;5.048;2023-04-01T07:40:03;9.41;;7.63;;;;;;;
72225;SPS30;60130;52.250;5.048;2023-04-01T07:45:02;8.70;;7.57;;;;;;;
72225;SPS30;60130;52.250;5.048;2023-04-01T07:50:02;9.21;;8.14;;;;;;;
72225;SPS30;60130;52.250;5.048;2023-04-01T07:55:01;8.78;;7.75;;;;;;;
72225;SPS30;60130;52.250;5.048;2023-04-01T08:00:02;8.19;;7.28;;;;;;;
72225;SPS30;60130;52.250;5.048;2023-04-01T08:05:03;9.18;;7.91;;;;;;;
72225;SPS30;60130;52.250;5.048;2023-04-01T08:10:02;9.71;;8.36;;;;;;;
72225;SPS30;60130;52.250;5.048;2023-04-01T08:15:03;8.98;;7.91;;;;;;;
72225;SPS30;60130;52.250;5.048;2023-04-01T08:20:04;9.05;;8.01;;;;;;;
72225;SPS30;60130;52.250;5.048;2023-04-01T08:25:00;9.26;;8.02;;;;;;;
72225;SPS30;60130;52.250;5.048;2023-04-01T08:30:02;8.92;;8.06;;;;;;;
72225;SPS30;60130;52.250;5.048;2023-04-01T08:35:02;9.24;;8.28;;;;;;;
72225;SPS30;60130;52.250;5.048;2023-04-01T08:40:01;8.12;;7.13;;;;;;;
72225;SPS30;60130;52.250;5.048;2023-04-01T08:45:05;8.31;;7.25;;;;;;;
72225;SPS30;60130;52.250;5.048;2023-04-01T08:50:05;7.22;;6.39;;;;;;;
72225;SPS30;60130;52.250;5.048;2023-04-01T09:00:03;6.91;;6.05;;;;;;;
72225;SPS30;60130;52.250;5.048;2023-04-01T09:10:06;5.09;;4.54;;;;;;;
72225;SPS30;60130;52.250;5.048;2023-04-01T09:15:03;5.55;;5.07;;;;;;;
72225;SPS30;60130;52.250;5.048;2023-04-01T09:20:03;5.26;;4.80;;;;;;;
72225;SPS30;60130;52.250;5.048;2023-04-01T09:25:05;5.68;;5.06;;;;;;;
72225;SPS30;60130;52.250;5.048;2023-04-01T09:30:07;4.45;;4.16;;;;;;;
72225;SPS30;60130;52.250;5.048;2023-04-01T09:35:02;4.79;;4.54;;;;;;;
72225;SPS30;60130;52.250;5.048;2023-04-01T09:40:08;4.77;;4.53;;;;;;;
72225;SPS30;60130;52.250;5.048;2023-04-01T09:45:01;5.54;;5.08;;;;;;;
72225;SPS30;60130;52.250;5.048;2023-04-01T09:50:06;5.79;;5.18;;;;;;;
72225;SPS30;60130;52.250;5.048;2023-04-01T09:55:05;6.50;;5.79;;;;;;;
72225;SPS30;60130;52.250;5.048;2023-04-01T10:05:06;5.89;;5.52;;;;;;;
72225;SPS30;60130;52.250;5.048;2023-04-01T10:20:02;6.26;;5.61;;;;;;;
72225;SPS30;60130;52.250;5.048;2023-04-01T10:35:08;4.40;;4.16;;;;;;;
72225;SPS30;60130;52.250;5.048;2023-04-01T10:50:06;5.71;;5.20;;;;;;;
72225;SPS30;60130;52.250;5.048;2023-04-01T10:55:05;5.09;;4.54;;;;;;;
72225;SPS30;60130;52.250;5.048;2023-04-01T11:00:05;4.60;;4.36;;;;;;;
72225;SPS30;60130;52.250;5.048;2023-04-01T11:15:06;4.54;;4.23;;;;;;;
72225;SPS30;60130;52.250;5.048;2023-04-01T11:20:07;4.38;;3.92;;;;;;;
72225;SPS30;60130;52.250;5.048;2023-04-01T11:25:05;5.04;;4.48;;;;;;;
72225;SPS30;60130;52.250;5.048;2023-04-01T11:30:03;5.85;;5.11;;;;;;;
72225;SPS30;60130;52.250;5.048;2023-04-01T11:35:20;6.05;;5.59;;;;;;;
72225;SPS30;60130;52.250;5.048;2023-04-01T11:40:03;6.80;;6.03;;;;;;;
72225;SPS30;60130;52.250;5.048;2023-04-01T11:45:06;7.01;;6.34;;;;;;;
72225;SPS30;60130;52.250;5.048;2023-04-01T11:50:03;7.55;;6.60;;;;;;;
72225;SPS30;60130;52.250;5.048;2023-04-01T11:55:04;7.54;;6.84;;;;;;;
72225;SPS30;60130;52.250;5.048;2023-04-01T12:00:02;6.56;;6.01;;;;;;;
72225;SPS30;60130;52.250;5.048;2023-04-01T12:05:03;5.49;;5.04;;;;;;;
72225;SPS30;60130;52.250;5.048;2023-04-01T12:10:02;7.34;;6.61;;;;;;;
72225;SPS30;60130;52.250;5.048;2023-04-01T12:15:02;7.27;;6.60;;;;;;;
72225;SPS30;60130;52.250;5.048;2023-04-01T12:20:01;7.85;;6.96;;;;;;;
72225;SPS30;60130;52.250;5.048;2023-04-01T12:25:03;7.54;;6.99;;;;;;;
72225;SPS30;60130;52.250;5.048;2023-04-01T12:30:08;7.38;;6.66;;;;;;;
72225;SPS30;60130;52.250;5.048;2023-04-01T12:35:02;7.48;;6.90;;;;;;;
72225;SPS30;60130;52.250;5.048;2023-04-01T12:40:02;6.66;;6.22;;;;;;;
72225;SPS30;60130;52.250;5.048;2023-04-01T12:45:02;4.39;;4.00;;;;;;;
72225;SPS30;60130;52.250;5.048;2023-04-01T12:50:06;4.45;;4.19;;;;;;;
72225;SPS30;60130;52.250;5.048;2023-04-01T12:55:08;5.40;;4.98;;;;;;;
72225;SPS30;60130;52.250;5.048;2023-04-01T13:00:04;4.98;;4.62;;;;;;;
72225;SPS30;60130;52.250;5.048;2023-04-01T13:05:09;4.29;;3.99;;;;;;;
72225;SPS30;60130;52.250;5.048;2023-04-01T13:10:01;4.69;;4.41;;;;;;;
72225;SPS30;60130;52.250;5.048;2023-04-01T13:20:02;4.64;;4.44;;;;;;;
72225;SPS30;60130;52.250;5.048;2023-04-01T13:25:01;4.97;;4.74;;;;;;;
72225;SPS30;60130;52.250;5.048;2023-04-01T13:30:02;4.66;;4.47;;;;;;;
72225;SPS30;60130;52.250;5.048;2023-04-01T13:35:04;4.99;;4.90;;;;;;;
72225;SPS30;60130;52.250;5.048;2023-04-01T13:40:02;5.29;;5.10;;;;;;;
72225;SPS30;60130;52.250;5.048;2023-04-01T13:45:00;6.73;;6.43;;;;;;;
72225;SPS30;60130;52.250;5.048;2023-04-01T13:50:08;5.86;;5.74;;;;;;;
72225;SPS30;60130;52.250;5.048;2023-04-01T13:55:04;5.78;;5.63;;;;;;;
72225;SPS30;60130;52.250;5.048;2023-04-01T14:00:03;5.36;;5.29;;;;;;;
72225;SPS30;60130;52.250;5.048;2023-04-01T14:05:06;5.29;;5.12;;;;;;;
72225;SPS30;60130;52.250;5.048;2023-04-01T14:10:10;6.52;;6.23;;;;;;;
72225;SPS30;60130;52.250;5.048;2023-04-01T14:15:05;6.00;;5.90;;;;;;;
72225;SPS30;60130;52.250;5.048;2023-04-01T14:20:02;6.42;;6.31;;;;;;;
72225;SPS30;60130;52.250;5.048;2023-04-01T14:25:05;6.18;;6.05;;;;;;;
72225;SPS30;60130;52.250;5.048;2023-04-01T14:30:04;6.95;;6.79;;;;;;;
72225;SPS30;60130;52.250;5.048;2023-04-01T14:35:09;6.32;;6.14;;;;;;;
72225;SPS30;60130;52.250;5.048;2023-04-01T14:40:05;6.57;;6.37;;;;;;;
72225;SPS30;60130;52.250;5.048;2023-04-01T14:45:05;6.39;;6.13;;;;;;;
72225;SPS30;60130;52.250;5.048;2023-04-01T14:50:05;5.39;;5.28;;;;;;;
72225;SPS30;60130;52.250;5.048;2023-04-01T14:55:00;5.30;;5.08;;;;;;;
72225;SPS30;60130;52.250;5.048;2023-04-01T15:00:00;5.67;;5.53;;;;;;;
72225;SPS30;60130;52.250;5.048;2023-04-01T15:05:03;5.67;;5.49;;;;;;;
72225;SPS30;60130;52.250;5.048;2023-04-01T15:10:01;5.29;;5.13;;;;;;;
72225;SPS30;60130;52.250;5.048;2023-04-01T15:15:03;5.12;;4.95;;;;;;;
72225;SPS30;60130;52.250;5.048;2023-04-01T15:20:04;5.43;;5.30;;;;;;;
72225;SPS30;60130;52.250;5.048;2023-04-01T15:25:05;4.18;;4.06;;;;;;;
72225;SPS30;60130;52.250;5.048;2023-04-01T15:30:02;4.54;;4.48;;;;;;;
72225;SPS30;60130;52.250;5.048;2023-04-01T15:35:01;3.74;;3.67;;;;;;;
72225;SPS30;60130;52.250;5.048;2023-04-01T15:40:02;4.01;;3.94;;;;;;;
72225;SPS30;60130;52.250;5.048;2023-04-01T15:45:03;4.64;;4.50;;;;;;;
72225;SPS30;60130;52.250;5.048;2023-04-01T15:50:05;5.30;;5.19;;;;;;;
72225;SPS30;60130;52.250;5.048;2023-04-01T16:05:01;14.44;;13.93;;;;;;;
72225;SPS30;60130;52.250;5.048;2023-04-01T16:10:05;5.49;;5.42;;;;;;;
72225;SPS30;60130;52.250;5.048;2023-04-01T16:15:03;7.59;;7.46;;;;;;;
72225;SPS30;60130;52.250;5.048;2023-04-01T16:20:01;6.47;;6.42;;;;;;;
72225;SPS30;60130;52.250;5.048;2023-04-01T16:25:07;4.35;;4.34;;;;;;;
72225;SPS30;60130;52.250;5.048;2023-04-01T16:30:01;5.35;;5.30;;;;;;;
72225;SPS30;60130;52.250;5.048;2023-04-01T16:35:04;4.26;;4.26;;;;;;;
72225;SPS30;60130;52.250;5.048;2023-04-01T16:40:02;4.19;;4.19;;;;;;;
72225;SPS30;60130;52.250;5.048;2023-04-01T16:45:00;2.94;;2.94;;;;;;;
72225;SPS30;60130;52.250;5.048;2023-04-01T16:50:05;2.62;;2.62;;;;;;;
72225;SPS30;60130;52.250;5.048;2023-04-01T16:55:01;2.40;;2.36;;;;;;;
72225;SPS30;60130;52.250;5.048;2023-04-01T17:00:02;1.70;;1.67;;;;;;;
72225;SPS30;60130;52.250;5.048;2023-04-01T17:05:00;2.11;;2.06;;;;;;;
72225;SPS30;60130;52.250;5.048;2023-04-01T17:15:02;2.41;;2.32;;;;;;;
72225;SPS30;60130;52.250;5.048;2023-04-01T17:20:03;2.13;;2.13;;;;;;;
72225;SPS30;60130;52.250;5.048;2023-04-01T17:25:03;1.95;;1.95;;;;;;;
72225;SPS30;60130;52.250;5.048;2023-04-01T17:30:05;2.05;;2.05;;;;;;;
72225;SPS30;60130;52.250;5.048;2023-04-01T17:35:00;1.61;;1.61;;;;;;;
72225;SPS30;60130;52.250;5.048;2023-04-01T17:40:04;2.09;;2.09;;;;;;;
72225;SPS30;60130;52.250;5.048;2023-04-01T17:45:01;2.27;;2.27;;;;;;;
72225;SPS30;60130;52.250;5.048;2023-04-01T17:50:02;2.50;;2.50;;;;;;;
72225;SPS30;60130;52.250;5.048;2023-04-01T17:55:12;2.22;;2.22;;;;;;;
72225;SPS30;60130;52.250;5.048;2023-04-01T18:00:01;2.31;;2.31;;;;;;;
72225;SPS30;60130;52.250;5.048;2023-04-01T18:10:04;2.27;;2.27;;;;;;;
72225;SPS30;60130;52.250;5.048;2023-04-01T18:15:03;2.65;;2.61;;;;;;;
72225;SPS30;60130;52.250;5.048;2023-04-01T18:20:02;2.82;;2.79;;;;;;;
72225;SPS30;60130;52.250;5.048;2023-04-01T18:25:01;2.92;;2.92;;;;;;;
72225;SPS30;60130;52.250;5.048;2023-04-01T18:30:00;3.18;;3.11;;;;;;;
72225;SPS30;60130;52.250;5.048;2023-04-01T18:35:02;3.30;;3.30;;;;;;;
72225;SPS30;60130;52.250;5.048;2023-04-01T18:40:02;4.05;;3.97;;;;;;;
72225;SPS30;60130;52.250;5.048;2023-04-01T18:45:01;3.37;;3.34;;;;;;;
72225;SPS30;60130;52.250;5.048;2023-04-01T18:50:02;4.09;;4.04;;;;;;;
72225;SPS30;60130;52.250;5.048;2023-04-01T19:00:03;4.55;;4.48;;;;;;;
72225;SPS30;60130;52.250;5.048;2023-04-01T19:05:01;4.57;;4.50;;;;;;;
72225;SPS30;60130;52.250;5.048;2023-04-01T19:10:01;4.43;;4.43;;;;;;;
72225;SPS30;60130;52.250;5.048;2023-04-01T19:15:08;4.23;;4.20;;;;;;;
72225;SPS30;60130;52.250;5.048;2023-04-01T19:20:03;4.58;;4.50;;;;;;;
72225;SPS30;60130;52.250;5.048;2023-04-01T19:25:02;5.16;;5.03;;;;;;;
72225;SPS30;60130;52.250;5.048;2023-04-01T19:30:05;4.71;;4.67;;;;;;;
72225;SPS30;60130;52.250;5.048;2023-04-01T19:35:04;5.21;;5.08;;;;;;;
72225;SPS30;60130;52.250;5.048;2023-04-01T19:40:03;4.55;;4.47;;;;;;;
72225;SPS30;60130;52.250;5.048;2023-04-01T19:45:03;4.50;;4.45;;;;;;;
72225;SPS30;60130;52.250;5.048;2023-04-01T19:50:01;4.69;;4.64;;;;;;;
72225;SPS30;60130;52.250;5.048;2023-04-01T19:55:02;4.93;;4.82;;;;;;;
72225;SPS30;60130;52.250;5.048;2023-04-01T20:00:02;4.41;;4.37;;;;;;;
72225;SPS30;60130;52.250;5.048;2023-04-01T20:05:01;5.37;;5.34;;;;;;;
72225;SPS30;60130;52.250;5.048;2023-04-01T20:10:02;5.98;;5.88;;;;;;;
72225;SPS30;60130;52.250;5.048;2023-04-01T20:15:00;5.58;;5.48;;;;;;;
72225;SPS30;60130;52.250;5.048;2023-04-01T20:20:01;5.65;;5.58;;;;;;;
72225;SPS30;60130;52.250;5.048;2023-04-01T20:25:02;5.46;;5.31;;;;;;;
72225;SPS30;60130;52.250;5.048;2023-04-01T20:30:05;5.66;;5.54;;;;;;;
72225;SPS30;60130;52.250;5.048;2023-04-01T20:35:08;6.28;;6.04;;;;;;;
72225;SPS30;60130;52.250;5.048;2023-04-01T20:40:06;5.09;;4.91;;;;;;;
72225;SPS30;60130;52.250;5.048;2023-04-01T20:45:06;5.09;;5.02;;;;;;;
72225;SPS30;60130;52.250;5.048;2023-04-01T20:50:00;5.36;;5.20;;;;;;;
72225;SPS30;60130;52.250;5.048;2023-04-01T21:00:03;4.62;;4.56;;;;;;;
72225;SPS30;60130;52.250;5.048;2023-04-01T21:05:07;5.26;;5.16;;;;;;;
72225;SPS30;60130;52.250;5.048;2023-04-01T21:10:06;5.21;;5.16;;;;;;;
72225;SPS30;60130;52.250;5.048;2023-04-01T21:15:03;5.11;;5.04;;;;;;;
72225;SPS30;60130;52.250;5.048;2023-04-01T21:20:05;5.54;;5.48;;;;;;;
72225;SPS30;60130;52.250;5.048;2023-04-01T21:25:03;5.14;;5.07;;;;;;;
72225;SPS30;60130;52.250;5.048;2023-04-01T21:30:02;5.09;;5.07;;;;;;;
72225;SPS30;60130;52.250;5.048;2023-04-01T21:35:01;5.74;;5.62;;;;;;;
72225;SPS30;60130;52.250;5.048;2023-04-01T21:40:02;5.32;;5.22;;;;;;;
72225;SPS30;60130;52.250;5.048;2023-04-01T21:45:03;5.66;;5.58;;;;;;;
72225;SPS30;60130;52.250;5.048;2023-04-01T21:50:03;5.82;;5.74;;;;;;;
72225;SPS30;60130;52.250;5.048;2023-04-01T21:55:06;5.82;;5.69;;;;;;;
72225;SPS30;60130;52.250;5.048;2023-04-01T22:00:09;5.89;;5.77;;;;;;;
72225;SPS30;60130;52.250;5.048;2023-04-01T22:05:02;6.43;;6.28;;;;;;;
72225;SPS30;60130;52.250;5.048;2023-04-01T22:10:01;6.37;;6.22;;;;;;;
72225;SPS30;60130;52.250;5.048;2023-04-01T22:15:01;6.57;;6.41;;;;;;;
72225;SPS30;60130;52.250;5.048;2023-04-01T22:20:03;7.17;;7.01;;;;;;;
72225;SPS30;60130;52.250;5.048;2023-04-01T22:25:02;6.33;;6.25;;;;;;;
72225;SPS30;60130;52.250;5.048;2023-04-01T22:30:04;7.03;;6.92;;;;;;;
72225;SPS30;60130;52.250;5.048;2023-04-01T22:35:02;7.35;;7.20;;;;;;;
72225;SPS30;60130;52.250;5.048;2023-04-01T22:40:06;7.73;;7.72;;;;;;;
72225;SPS30;60130;52.250;5.048;2023-04-01T22:45:02;7.32;;7.29;;;;;;;
72225;SPS30;60130;52.250;5.048;2023-04-01T22:50:02;6.93;;6.85;;;;;;;
72225;SPS30;60130;52.250;5.048;2023-04-01T22:55:00;6.75;;6.69;;;;;;;
72225;SPS30;60130;52.250;5.048;2023-04-01T23:00:01;6.87;;6.74;;;;;;;
72225;SPS30;60130;52.250;5.048;2023-04-01T23:05:00;7.58;;7.58;;;;;;;
72225;SPS30;60130;52.250;5.048;2023-04-01T23:10:00;7.97;;7.78;;;;;;;
72225;SPS30;60130;52.250;5.048;2023-04-01T23:15:00;7.61;;7.50;;;;;;;
72225;SPS30;60130;52.250;5.048;2023-04-01T23:20:02;7.73;;7.63;;;;;;;
72225;SPS30;60130;52.250;5.048;2023-04-01T23:25:02;8.33;;8.13;;;;;;;
72225;SPS30;60130;52.250;5.048;2023-04-01T23:30:00;7.99;;7.88;;;;;;;
72225;SPS30;60130;52.250;5.048;2023-04-01T23:35:00;8.64;;8.52;;;;;;;
72225;SPS30;60130;52.250;5.048;2023-04-01T23:40:00;9.62;;9.34;;;;;;;
72225;SPS30;60130;52.250;5.048;2023-04-01T23:45:00;8.45;;8.27;;;;;;;
72225;SPS30;60130;52.250;5.048;2023-04-01T23:50:00;9.63;;9.50;;;;;;;
72225;SPS30;60130;52.250;5.048;2023-04-01T23:55:01;9.25;;9.13;;;;;;;
